Walsenburg, Colorado
Current Conditions -  °F | °C
As of 8:51 PM on Thursday 27 Nov 2014 (Local Time) from KVTP Reporting Station
Clear Clear  
Wind Chill: 29°   Ceiling: Unl
Heat Index: 37°   Visibility: 10mi
Dew Point: 14°   Wind: 13mph
Humidity: 38%   Direction: 200°SSW
Pressure: 30.37"   Gusts: 28mph
Location:  37.62°N, 104.78°W
Report Text: KVTP 280351Z AUTO 20011G24KT 170V240 10SM CLR 03/M10 A3037 RMK AO2
Loading
Personal Weather Stations






























Interactive Weather Map New forecast layout! Learn more

10-Day Weather Forecast

Advertisements
Track Severe Weather on mobile